createdAt,value
2022-07-26T00:01:05.053Z,101223.31
2022-07-26T00:03:32.715Z,101232.63
2022-07-26T00:05:59.666Z,101222.78
2022-07-26T00:08:26.177Z,101225.75
2022-07-26T00:10:53.057Z,101229.56
2022-07-26T00:13:20.884Z,101237.28
2022-07-26T00:15:48.547Z,101237.28
2022-07-26T00:18:15.708Z,101246.59
2022-07-26T00:20:42.463Z,101249.81
2022-07-26T00:23:09.447Z,101246.75
2022-07-26T00:25:36.595Z,101252.72
2022-07-26T00:28:03.663Z,101253.31
2022-07-26T00:30:30.182Z,101259.28
2022-07-26T00:32:56.834Z,101254.16
2022-07-26T00:35:23.396Z,101257.69
2022-07-26T00:37:50.155Z,101259.28
2022-07-26T00:40:17.363Z,101266.84
2022-07-26T00:42:44.156Z,101262.41
2022-07-26T00:45:12.483Z,101266.47
2022-07-26T00:47:39.163Z,101267.28
2022-07-26T00:50:08.009Z,101265.88
2022-07-26T00:52:34.604Z,101267.78
2022-07-26T00:55:01.239Z,101269.94
2022-07-26T00:57:28.085Z,101269.13
2022-07-26T00:59:54.942Z,101269.13
2022-07-26T01:02:22.284Z,101260.59
2022-07-26T01:04:48.734Z,101270.44
2022-07-26T01:07:15.877Z,101265.72
2022-07-26T01:09:42.968Z,101268.72
2022-07-26T01:12:09.432Z,101270.38
2022-07-26T01:14:35.973Z,101270.38
2022-07-26T01:17:02.456Z,101270.38
2022-07-26T01:19:28.904Z,101272.53
2022-07-26T01:21:55.555Z,101275.25
2022-07-26T01:24:21.994Z,101277.16
2022-07-26T01:26:48.418Z,101270.88
2022-07-26T01:29:14.859Z,101271.47
2022-07-26T01:31:41.474Z,101273.69
2022-07-26T01:34:08.267Z,101268.53
2022-07-26T01:36:35.486Z,101279.47
2022-07-26T01:39:02.141Z,101271.53
2022-07-26T01:41:37.404Z,101285.69
2022-07-26T01:44:06.698Z,101282.06
2022-07-26T01:46:34.528Z,101295.91
2022-07-26T01:49:01.778Z,101295.47
2022-07-26T01:51:28.573Z,101288.59
2022-07-26T01:53:55.038Z,101296.56
2022-07-26T01:56:21.468Z,101289.94
2022-07-26T01:58:47.905Z,101291.84
2022-07-26T02:01:14.327Z,101291.56
2022-07-26T02:03:40.788Z,101297.88
2022-07-26T02:06:07.506Z,101291.56
2022-07-26T02:08:33.966Z,101292.41
2022-07-26T02:11:03.385Z,101296.22
2022-07-26T02:13:41.521Z,101302.50
2022-07-26T02:16:11.847Z,101299.19
2022-07-26T02:18:40.344Z,101304.91
2022-07-26T02:21:07.854Z,101304.34
2022-07-26T02:23:35.409Z,101304.84
2022-07-26T02:26:07.164Z,101300.44
2022-07-26T02:28:33.551Z,101303.19
2022-07-26T02:30:59.960Z,101304.25
2022-07-26T02:33:26.427Z,101304.25
2022-07-26T02:35:52.897Z,101306.97
2022-07-26T02:38:19.402Z,101312.09
2022-07-26T02:40:46.294Z,101312.28
2022-07-26T02:43:12.709Z,101312.50
2022-07-26T02:45:39.422Z,101310.59
2022-07-26T02:48:06.433Z,101304.56
2022-07-26T02:50:33.846Z,101303.75
2022-07-26T02:53:00.505Z,101310.28
2022-07-26T02:55:27.260Z,101306.97
2022-07-26T02:57:54.286Z,101303.41
2022-07-26T03:00:24.296Z,101311.00
2022-07-26T03:02:51.569Z,101315.31
2022-07-26T03:05:19.390Z,101328.97
2022-07-26T03:07:46.629Z,101318.56
2022-07-26T03:10:13.731Z,101330.31
2022-07-26T03:12:40.219Z,101330.06
2022-07-26T03:15:06.999Z,101329.47
2022-07-26T03:17:33.426Z,101331.97
2022-07-26T03:19:59.991Z,101329.13
2022-07-26T03:22:26.417Z,101331.28
2022-07-26T03:24:52.907Z,101329.63
2022-07-26T03:27:19.332Z,101336.16
2022-07-26T03:29:45.728Z,101329.88
2022-07-26T03:32:12.175Z,101330.09
2022-07-26T03:34:38.572Z,101337.25
2022-07-26T03:37:04.997Z,101340.22
2022-07-26T03:39:31.472Z,101342.13
2022-07-26T03:41:57.942Z,101345.66
2022-07-26T03:44:24.358Z,101358.75
2022-07-26T03:46:50.756Z,101350.44
2022-07-26T03:49:17.591Z,101347.53
2022-07-26T03:51:44.334Z,101353.13
2022-07-26T03:54:11.368Z,101361.47
2022-07-26T03:56:38.597Z,101371.75
2022-07-26T03:59:07.335Z,101365.72
2022-07-26T04:01:35.487Z,101362.38
2022-07-26T04:04:02.749Z,101369.75
2022-07-26T04:06:29.927Z,101372.50
2022-07-26T04:08:56.560Z,101373.56
2022-07-26T04:11:23.229Z,101377.34
2022-07-26T04:13:54.319Z,101368.56
2022-07-26T04:16:20.750Z,101375.84
2022-07-26T04:18:47.200Z,101375.25
2022-07-26T04:21:13.583Z,101380.69
2022-07-26T04:23:39.986Z,101376.78
2022-07-26T04:26:06.488Z,101381.66
2022-07-26T04:28:33.247Z,101386.88
2022-07-26T04:31:00.845Z,101393.88
2022-07-26T04:33:27.703Z,101398.63
2022-07-26T04:35:54.426Z,101400.53
2022-07-26T04:38:20.858Z,101399.50
2022-07-26T04:40:47.314Z,101408.72
2022-07-26T04:43:15.710Z,101413.81
2022-07-26T04:45:46.333Z,101404.19
2022-07-26T04:48:13.862Z,101412.28
2022-07-26T04:50:42.295Z,101414.28
2022-07-26T04:53:11.192Z,101421.66
2022-07-26T04:55:38.405Z,101423.88
2022-07-26T04:58:05.536Z,101420.22
2022-07-26T05:00:31.958Z,101432.09
2022-07-26T05:03:00.762Z,101428.53
2022-07-26T05:05:30.205Z,101430.19
2022-07-26T05:07:59.281Z,101433.63
2022-07-26T05:10:36.614Z,101433.25
2022-07-26T05:13:05.165Z,101443.81
2022-07-26T05:15:35.385Z,101446.31
2022-07-26T05:18:13.623Z,101451.75
2022-07-26T05:20:40.399Z,101437.28
2022-07-26T05:23:07.364Z,101456.13
2022-07-26T05:25:33.913Z,101452.34
2022-07-26T05:28:00.343Z,101457.31
2022-07-26T05:30:26.867Z,101455.69
2022-07-26T05:32:53.333Z,101457.31
2022-07-26T05:35:19.977Z,101469.56
2022-07-26T05:37:46.482Z,101473.56
2022-07-26T05:40:13.584Z,101468.38
2022-07-26T05:42:40.051Z,101465.03
2022-07-26T05:45:07.276Z,101475.56
2022-07-26T05:47:33.943Z,101472.06
2022-07-26T05:50:00.697Z,101474.78
2022-07-26T05:52:27.102Z,101483.34
2022-07-26T05:54:53.551Z,101482.91
2022-07-26T05:57:19.958Z,101487.91
2022-07-26T05:59:46.351Z,101494.19
2022-07-26T06:02:12.815Z,101495.03
2022-07-26T06:04:39.236Z,101502.91
2022-07-26T06:07:05.687Z,101515.28
2022-07-26T06:09:32.126Z,101513.34
2022-07-26T06:11:58.519Z,101519.38
2022-07-26T06:14:25.115Z,101523.94
2022-07-26T06:16:51.602Z,101520.75
2022-07-26T06:19:18.097Z,101523.00
2022-07-26T06:21:45.982Z,101527.78
2022-07-26T06:24:13.336Z,101538.44
2022-07-26T06:26:39.799Z,101537.81
2022-07-26T06:29:06.324Z,101540.56
2022-07-26T06:31:32.991Z,101539.53
2022-07-26T06:33:59.485Z,101542.25
2022-07-26T06:36:30.273Z,101543.06
2022-07-26T06:38:57.349Z,101548.28
2022-07-26T06:41:24.054Z,101559.31
2022-07-26T06:43:50.486Z,101565.63
2022-07-26T06:46:17.042Z,101564.06
2022-07-26T06:48:47.317Z,101570.56
2022-07-26T06:51:14.239Z,101571.16
2022-07-26T06:53:40.688Z,101576.38
2022-07-26T06:56:07.650Z,101582.22
2022-07-26T06:58:34.199Z,101588.81
2022-07-26T07:01:00.706Z,101581.78
2022-07-26T07:03:27.204Z,101581.09
2022-07-26T07:05:53.606Z,101585.50
2022-07-26T07:08:21.485Z,101596.53
2022-07-26T07:10:50.926Z,101593.22
2022-07-26T07:13:18.066Z,101602.38
2022-07-26T07:15:45.043Z,101595.16
2022-07-26T07:18:11.887Z,101592.44
2022-07-26T07:20:40.062Z,101596.91
2022-07-26T07:23:07.638Z,101593.88
2022-07-26T07:25:34.229Z,101605.72
2022-07-26T07:28:00.659Z,101609.97
2022-07-26T07:30:28.064Z,101606.41
2022-07-26T07:32:55.622Z,101610.41
2022-07-26T07:35:23.299Z,101610.50
2022-07-26T07:37:52.978Z,101616.31
2022-07-26T07:40:20.628Z,101626.59
2022-07-26T07:42:47.092Z,101620.56
2022-07-26T07:45:13.543Z,101617.84
2022-07-26T07:47:40.033Z,101624.88
2022-07-26T07:50:07.212Z,101617.22
2022-07-26T07:52:33.690Z,101624.25
2022-07-26T07:55:28.713Z,101625.16
2022-07-26T07:57:46.514Z,101628.72
2022-07-26T08:00:16.010Z,101630.22
2022-07-26T08:02:42.781Z,101630.03
2022-07-26T08:05:11.435Z,101641.38
2022-07-26T08:07:41.080Z,101641.81
2022-07-26T08:10:08.631Z,101646.97
2022-07-26T08:12:35.339Z,101634.13
2022-07-26T08:15:07.396Z,101645.34
2022-07-26T08:17:35.359Z,101654.94
2022-07-26T08:20:08.140Z,101654.28
2022-07-26T08:22:37.361Z,101656.47
2022-07-26T08:25:04.163Z,101654.25
2022-07-26T08:27:30.634Z,101660.84
2022-07-26T08:29:57.055Z,101655.75
2022-07-26T08:32:24.532Z,101661.59
2022-07-26T08:34:51.507Z,101656.53
2022-07-26T08:37:23.883Z,101664.13
2022-07-26T08:39:50.497Z,101655.00
2022-07-26T08:42:22.454Z,101670.84
2022-07-26T08:44:50.719Z,101666.41
2022-07-26T08:47:35.172Z,101683.34
2022-07-26T08:50:07.120Z,101676.91
2022-07-26T08:52:33.853Z,101676.88
2022-07-26T08:55:00.474Z,101675.13
2022-07-26T08:57:26.933Z,101687.63
2022-07-26T09:00:19.043Z,101682.31
2022-07-26T09:02:46.952Z,101683.34
2022-07-26T09:05:13.867Z,101690.97
2022-07-26T09:07:41.327Z,101688.69
2022-07-26T09:10:11.224Z,101685.88
2022-07-26T09:12:44.490Z,101683.78
2022-07-26T09:15:20.473Z,101694.13
2022-07-26T09:17:49.754Z,101703.50
2022-07-26T09:20:27.894Z,101707.47
2022-07-26T09:23:07.239Z,101721.00
2022-07-26T09:25:39.810Z,101715.41
2022-07-26T09:28:24.808Z,101729.44
2022-07-26T09:31:12.772Z,101734.38
2022-07-26T09:33:51.298Z,101732.97
2022-07-26T09:36:18.530Z,101738.22
2022-07-26T09:38:51.801Z,101748.06
2022-07-26T09:41:23.654Z,101748.31
2022-07-26T09:43:53.944Z,101745.09
2022-07-26T09:46:23.205Z,101752.25
2022-07-26T09:49:09.925Z,101753.53
2022-07-26T09:51:48.049Z,101768.94
2022-07-26T09:54:35.435Z,101776.28
2022-07-26T09:57:02.670Z,101771.47
2022-07-26T09:59:29.701Z,101771.66
2022-07-26T10:01:58.651Z,101770.44
2022-07-26T10:04:26.593Z,101770.44
2022-07-26T10:06:53.493Z,101775.59
2022-07-26T10:09:22.811Z,101779.69
2022-07-26T10:11:55.259Z,101778.16
2022-07-26T10:14:33.685Z,101785.75
2022-07-26T10:17:02.014Z,101794.22
2022-07-26T10:19:45.239Z,101805.22
2022-07-26T10:22:33.922Z,101797.94
2022-07-26T10:25:18.819Z,101801.56
2022-07-26T10:27:46.709Z,101800.06
2022-07-26T10:30:22.594Z,101800.88
2022-07-26T10:32:52.136Z,101796.03
2022-07-26T10:35:38.796Z,101787.84
2022-07-26T10:38:08.514Z,101793.09
2022-07-26T10:40:39.612Z,101797.41
2022-07-26T10:43:37.985Z,101797.13
2022-07-26T10:46:18.607Z,101796.38
2022-07-26T10:48:58.775Z,101799.25
2022-07-26T10:51:27.709Z,101794.84
2022-07-26T10:54:06.105Z,101807.13
2022-07-26T10:56:33.923Z,101810.53
2022-07-26T10:59:01.145Z,101798.78
2022-07-26T11:01:52.428Z,101807.03
2022-07-26T11:04:20.210Z,101805.59
2022-07-26T11:06:46.742Z,101812.28
2022-07-26T11:09:13.741Z,101808.94
2022-07-26T11:11:46.610Z,101810.91
2022-07-26T11:14:16.881Z,101810.84
2022-07-26T11:16:48.893Z,101820.41
2022-07-26T11:19:17.911Z,101817.59
2022-07-26T11:21:45.945Z,101815.31
2022-07-26T11:24:12.839Z,101821.59
2022-07-26T11:26:46.920Z,101818.19
2022-07-26T11:29:17.121Z,101828.13
2022-07-26T11:31:51.242Z,101822.25
2022-07-26T11:34:27.015Z,101821.53
2022-07-26T11:36:55.952Z,101820.00
2022-07-26T11:39:24.916Z,101822.94
2022-07-26T11:41:57.677Z,101818.22
2022-07-26T11:44:24.392Z,101814.78
2022-07-26T11:46:51.574Z,101827.81
2022-07-26T11:49:52.131Z,101829.72
2022-07-26T11:52:13.075Z,101829.47
2022-07-26T11:54:46.865Z,101828.69
2022-07-26T11:57:13.852Z,101835.69
2022-07-26T11:59:40.934Z,101838.19
2022-07-26T12:02:09.149Z,101834.41
2022-07-26T12:04:38.623Z,101832.25
2022-07-26T12:07:10.764Z,101831.38
2022-07-26T12:09:39.885Z,101824.97
2022-07-26T12:12:18.531Z,101832.72
2022-07-26T12:14:56.314Z,101833.47
2022-07-26T12:17:22.837Z,101840.59
2022-07-26T12:19:49.300Z,101831.25
2022-07-26T12:22:18.311Z,101839.72
2022-07-26T12:24:58.213Z,101834.75
2022-07-26T12:27:26.723Z,101838.34
2022-07-26T12:30:00.860Z,101839.66
2022-07-26T12:32:32.333Z,101839.94
2022-07-26T12:35:30.522Z,101841.81
2022-07-26T12:37:57.187Z,101849.44
2022-07-26T12:40:27.377Z,101845.88
2022-07-26T12:43:00.762Z,101855.84
2022-07-26T12:45:29.979Z,101849.75
2022-07-26T12:47:57.958Z,101856.63
2022-07-26T12:50:26.551Z,101855.19
2022-07-26T12:53:00.351Z,101853.97
2022-07-26T12:55:27.432Z,101864.78
2022-07-26T12:57:55.873Z,101852.31
2022-07-26T13:00:24.267Z,101860.94
2022-07-26T13:02:52.817Z,101856.41
2022-07-26T13:05:19.332Z,101855.59
2022-07-26T13:07:46.026Z,101855.72
2022-07-26T13:12:59.194Z,101853.81
2022-07-26T13:15:36.803Z,101849.75
2022-07-26T13:18:08.493Z,101847.72
2022-07-26T13:20:38.477Z,101856.13
2022-07-26T13:23:06.283Z,101859.72
2022-07-26T13:25:38.544Z,101859.94
2022-07-26T13:28:07.429Z,101860.72
2022-07-26T13:30:33.955Z,101852.31
2022-07-26T13:33:00.443Z,101862.63
2022-07-26T13:35:26.981Z,101860.88
2022-07-26T13:37:53.382Z,101869.81
2022-07-26T13:40:19.866Z,101868.97
2022-07-26T13:42:47.074Z,101872.53
2022-07-26T13:45:13.490Z,101870.69
2022-07-26T13:47:39.930Z,101873.69
2022-07-26T13:50:07.771Z,101873.81
2022-07-26T13:52:34.468Z,101873.09
2022-07-26T13:55:00.916Z,101875.97
2022-07-26T13:57:49.217Z,101876.34
2022-07-26T14:00:14.427Z,101868.97
2022-07-26T14:02:40.923Z,101877.28
2022-07-26T14:05:08.764Z,101877.66
2022-07-26T14:07:35.451Z,101876.25
2022-07-26T14:10:01.878Z,101875.69
2022-07-26T14:12:28.278Z,101876.31
2022-07-26T14:14:54.679Z,101887.72
2022-07-26T14:17:21.297Z,101885.25
2022-07-26T14:19:47.737Z,101889.91
2022-07-26T14:22:14.187Z,101884.28
2022-07-26T14:24:40.759Z,101889.00
2022-07-26T14:27:07.171Z,101892.03
2022-07-26T14:29:33.854Z,101898.84
2022-07-26T14:32:00.354Z,101899.03
2022-07-26T14:34:26.869Z,101901.72
2022-07-26T14:36:53.337Z,101900.69
2022-07-26T14:39:19.743Z,101896.25
2022-07-26T14:41:47.048Z,101909.00
2022-07-26T14:44:13.976Z,101902.78
2022-07-26T14:46:40.613Z,101902.22
2022-07-26T14:49:07.088Z,101913.53
2022-07-26T14:51:33.539Z,101912.53
2022-07-26T14:53:59.946Z,101913.16
2022-07-26T14:56:26.355Z,101912.31
2022-07-26T14:58:53.002Z,101916.09
2022-07-26T15:01:19.566Z,101918.22
2022-07-26T15:03:46.043Z,101919.66
2022-07-26T15:06:12.517Z,101913.22
2022-07-26T15:08:38.944Z,101911.78
2022-07-26T15:11:05.909Z,101913.78
2022-07-26T15:13:32.579Z,101914.16
2022-07-26T15:16:00.220Z,101915.81
2022-07-26T15:18:26.743Z,101925.59
2022-07-26T15:20:53.491Z,101920.59
2022-07-26T15:23:19.953Z,101916.13
2022-07-26T15:25:48.460Z,101913.28
2022-07-26T15:28:15.395Z,101919.44
2022-07-26T15:30:42.127Z,101923.56
2022-07-26T15:33:08.661Z,101922.75
2022-07-26T15:35:36.911Z,101918.88
2022-07-26T15:38:04.067Z,101911.50
2022-07-26T15:40:30.553Z,101915.06
2022-07-26T15:42:57.070Z,101910.34
2022-07-26T15:45:24.905Z,101913.69
2022-07-26T15:47:55.167Z,101910.72
2022-07-26T15:50:24.894Z,101908.31
2022-07-26T15:52:51.663Z,101910.22
2022-07-26T15:55:19.313Z,101916.66
2022-07-26T15:57:46.402Z,101912.75
2022-07-26T16:00:15.721Z,101920.84
2022-07-26T16:02:42.324Z,101919.44
2022-07-26T16:05:10.239Z,101918.69
2022-07-26T16:07:37.030Z,101921.72
2022-07-26T16:10:04.666Z,101921.72
2022-07-26T16:12:31.080Z,101920.44
2022-07-26T16:14:57.511Z,101925.28
2022-07-26T16:17:23.975Z,101929.25
2022-07-26T16:19:50.500Z,101926.38
2022-07-26T16:22:17.459Z,101931.59
2022-07-26T16:24:43.925Z,101929.78
2022-07-26T16:27:10.388Z,101931.75
2022-07-26T16:29:36.841Z,101933.28
2022-07-26T16:32:03.463Z,101930.56
2022-07-26T16:34:30.082Z,101928.66
2022-07-26T16:36:56.529Z,101922.34
2022-07-26T16:39:22.950Z,101928.72
2022-07-26T16:41:49.436Z,101928.09
2022-07-26T16:44:15.859Z,101920.44
2022-07-26T16:46:42.390Z,101915.13
2022-07-26T16:49:11.095Z,101928.00
2022-07-26T16:51:37.854Z,101925.97
2022-07-26T16:54:04.583Z,101930.59
2022-07-26T16:56:31.167Z,101936.50
2022-07-26T16:58:57.921Z,101945.00
2022-07-26T17:01:24.401Z,101935.72
2022-07-26T17:03:51.245Z,101944.16
2022-07-26T17:06:17.754Z,101942.53
2022-07-26T17:08:44.213Z,101940.94
2022-07-26T17:11:10.765Z,101943.06
2022-07-26T17:13:37.283Z,101947.84
2022-07-26T17:16:03.900Z,101950.75
2022-07-26T17:18:30.439Z,101949.75
2022-07-26T17:20:58.062Z,101948.06
2022-07-26T17:23:24.620Z,101951.81
2022-07-26T17:25:51.041Z,101952.59
2022-07-26T17:28:17.631Z,101960.31
2022-07-26T17:30:44.041Z,101948.84
2022-07-26T17:33:10.597Z,101948.84
2022-07-26T17:35:37.128Z,101949.66
2022-07-26T17:38:04.647Z,101944.00
2022-07-26T17:40:33.574Z,101944.22
2022-07-26T17:43:00.096Z,101940.50
2022-07-26T17:45:26.596Z,101944.06
2022-07-26T17:47:53.209Z,101946.41
2022-07-26T17:50:35.970Z,101941.22
2022-07-26T17:53:03.498Z,101946.47
2022-07-26T17:55:29.901Z,101951.47
2022-07-26T17:57:56.344Z,101947.06
2022-07-26T18:00:23.267Z,101956.03
2022-07-26T18:02:53.507Z,101947.41
2022-07-26T18:05:20.544Z,101945.50
2022-07-26T18:07:47.068Z,101947.63
2022-07-26T18:10:14.277Z,101962.19
2022-07-26T18:12:40.700Z,101961.41
2022-07-26T18:15:07.638Z,101966.03
2022-07-26T18:17:34.302Z,101964.97
2022-07-26T18:20:00.798Z,101965.41
2022-07-26T18:22:27.373Z,101961.50
2022-07-26T18:24:53.917Z,101962.00
2022-07-26T18:27:20.307Z,101953.88
2022-07-26T18:29:46.715Z,101964.31
2022-07-26T18:32:13.257Z,101962.50
2022-07-26T18:34:39.655Z,101952.03
2022-07-26T18:37:19.126Z,101956.06
2022-07-26T18:39:45.636Z,101959.88
2022-07-26T18:42:12.210Z,101956.50
2022-07-26T18:44:38.780Z,101970.38
2022-07-26T18:47:06.457Z,101965.41
2022-07-26T18:49:34.483Z,101966.03
2022-07-26T18:52:08.184Z,101974.19
2022-07-26T18:54:36.082Z,101966.28
2022-07-26T18:57:02.643Z,101960.00
2022-07-26T18:59:29.715Z,101963.97
2022-07-26T19:01:57.785Z,101966.69
2022-07-26T19:04:24.709Z,101966.69
2022-07-26T19:06:51.433Z,101972.38
2022-07-26T19:09:18.413Z,101973.59
2022-07-26T19:11:47.711Z,101972.53
2022-07-26T19:14:14.145Z,101973.13
2022-07-26T19:16:40.574Z,101979.81
2022-07-26T19:19:07.051Z,101982.94
2022-07-26T19:21:33.539Z,101992.38
2022-07-26T19:23:59.939Z,101984.19
2022-07-26T19:26:27.313Z,101988.63
2022-07-26T19:28:53.816Z,101980.69
2022-07-26T19:31:20.504Z,101987.38
2022-07-26T19:33:46.960Z,101988.81
2022-07-26T19:36:13.399Z,101999.69
2022-07-26T19:38:43.766Z,101991.69
2022-07-26T19:41:15.498Z,101996.13
2022-07-26T19:43:42.363Z,101997.81
2022-07-26T19:46:08.823Z,101993.03
2022-07-26T19:48:35.340Z,101995.75
2022-07-26T19:51:01.772Z,101999.78
2022-07-26T19:53:28.162Z,101999.53
2022-07-26T19:55:54.573Z,101996.66
2022-07-26T19:58:20.995Z,101997.06
2022-07-26T20:00:53.331Z,102004.00
2022-07-26T20:03:19.762Z,101994.38
2022-07-26T20:05:46.372Z,101994.59
2022-07-26T20:08:13.354Z,101994.44
2022-07-26T20:10:40.001Z,101997.75
2022-07-26T20:13:06.446Z,101999.88
2022-07-26T20:15:33.075Z,102008.31
2022-07-26T20:17:59.504Z,102005.78
2022-07-26T20:20:25.939Z,102010.16
2022-07-26T20:22:52.330Z,102009.78
2022-07-26T20:25:21.593Z,102011.28
2022-07-26T20:27:51.137Z,102006.91
2022-07-26T20:30:18.217Z,102012.34
2022-07-26T20:32:44.608Z,102002.88
2022-07-26T20:35:11.301Z,102004.38
2022-07-26T20:37:37.880Z,101998.72
2022-07-26T20:40:05.067Z,102005.44
2022-07-26T20:42:34.238Z,102002.69
2022-07-26T20:45:01.144Z,102001.44
2022-07-26T20:47:27.698Z,102006.91
2022-07-26T20:49:55.047Z,102007.09
2022-07-26T20:52:25.623Z,102014.22
2022-07-26T20:54:52.131Z,102020.06
2022-07-26T20:57:18.606Z,102018.41
2022-07-26T20:59:45.054Z,102019.47
2022-07-26T21:02:11.519Z,102028.25
2022-07-26T21:04:38.033Z,102022.16
2022-07-26T21:07:04.442Z,102025.50
2022-07-26T21:09:31.102Z,102021.09
2022-07-26T21:11:57.793Z,102025.09
2022-07-26T21:14:24.251Z,102030.97
2022-07-26T21:16:50.740Z,102032.25
2022-07-26T21:19:17.342Z,102037.06
2022-07-26T21:21:43.773Z,102035.41
2022-07-26T21:24:11.469Z,102039.19
2022-07-26T21:26:38.470Z,102036.28
2022-07-26T21:29:05.114Z,102040.84
2022-07-26T21:31:31.591Z,102042.56
2022-07-26T21:33:59.073Z,102039.00
2022-07-26T21:36:25.582Z,102033.53
2022-07-26T21:38:51.987Z,102044.44
2022-07-26T21:41:18.398Z,102038.34
2022-07-26T21:43:44.794Z,102034.78
2022-07-26T21:46:13.241Z,102034.16
2022-07-26T21:48:40.540Z,102045.06
2022-07-26T21:51:07.015Z,102036.28
2022-07-26T21:53:33.406Z,102041.09
2022-07-26T21:55:59.786Z,102044.03
2022-07-26T21:58:27.992Z,102043.44
2022-07-26T22:01:03.211Z,102044.69
2022-07-26T22:03:35.310Z,102050.34
2022-07-26T22:06:01.820Z,102048.66
2022-07-26T22:08:28.290Z,102051.81
2022-07-26T22:10:54.715Z,102049.47
2022-07-26T22:13:21.125Z,102048.22
2022-07-26T22:15:47.658Z,102045.69
2022-07-26T22:18:14.196Z,102049.91
2022-07-26T22:20:41.618Z,102050.53
2022-07-26T22:23:09.998Z,102055.38
2022-07-26T22:25:37.293Z,102061.84
2022-07-26T22:28:05.795Z,102060.41
2022-07-26T22:30:32.490Z,102059.56
2022-07-26T22:33:00.626Z,102067.91
2022-07-26T22:35:36.287Z,102065.41
2022-07-26T22:38:08.398Z,102069.38
2022-07-26T22:40:36.230Z,102065.84
2022-07-26T22:43:02.864Z,102064.16
2022-07-26T22:45:30.350Z,102061.44
2022-07-26T22:47:57.219Z,102055.16
2022-07-26T22:50:24.918Z,102064.56
2022-07-26T22:52:51.698Z,102058.53
2022-07-26T22:55:18.109Z,102054.31
2022-07-26T22:57:45.199Z,102052.84
2022-07-26T23:00:14.327Z,102047.84
2022-07-26T23:02:40.860Z,102055.59
2022-07-26T23:05:08.166Z,102050.34
2022-07-26T23:07:35.896Z,102046.78
2022-07-26T23:10:03.915Z,102040.50
2022-07-26T23:12:30.717Z,102047.41
2022-07-26T23:14:57.116Z,102043.03
2022-07-26T23:17:23.856Z,102038.84
2022-07-26T23:19:50.315Z,102045.34
2022-07-26T23:22:16.846Z,102043.03
2022-07-26T23:24:43.610Z,102048.03
2022-07-26T23:27:10.315Z,102039.03
2022-07-26T23:29:37.098Z,102044.72
2022-07-26T23:32:03.667Z,102047.63
2022-07-26T23:34:30.058Z,102041.56
2022-07-26T23:36:56.516Z,102040.09
2022-07-26T23:39:22.971Z,102045.75
2022-07-26T23:41:49.482Z,102044.47
2022-07-26T23:44:15.877Z,102041.53
2022-07-26T23:46:42.364Z,102046.16
2022-07-26T23:49:09.225Z,102046.16
2022-07-26T23:51:35.973Z,102050.75
2022-07-26T23:54:02.398Z,102048.66
2022-07-26T23:56:28.835Z,102049.50
2022-07-26T23:58:55.265Z,102048.66
